KMTO/MTO METAR and TAF weather

Enter ICAO airport designator
Station Type Date Time Source
KMTO METAR 2019/04/19 10:08 UTC NOAA

KMTO 191008Z AUTO 36013G21KT 10SM -RA BKN022 BKN042 OVC050 06/04 A2970 RMK AO2 P0000 T00560044


Station Type Date Time Source
KMTO Decoded METAR 2019/04/19 10:08 UTC NOAA

MATTOON/CHARLESTON COLES CO, IL, United States (KMTO) 39-28N 88-16W 214M
Apr 19, 2019 - 06:08 AM EDT / 2019.04.19 1008 UTC
Wind: from the N (360 degrees) at 15 MPH (13 KT) gusting to 24 MPH (21 KT):0
Visibility: 10 mile(s):0
Sky conditions: overcast
Weather: light rain
Precipitation last hour: A trace
Temperature: 42.1 F (5.6 C)
Dew Point: 39.9 F (4.4 C)
Relative Humidity: 91%
Pressure (altimeter): 29.7 in. Hg (1005 hPa)
ob: KMTO 191008Z AUTO 36013G21KT 10SM -RA BKN022 BKN042 OVC050 06/04 A2970 RMK AO2 P0000 T00560044
cycle: 10

Station Type Date Time Source
KMTO TAF UTC NOAA

Error!

Example: see airport list